Durbin, West Virginia
Current Conditions -  °F | °C
As of 11:51 PM on Thursday 30 Oct 2014 (Local Time) from KEKN Reporting Station
Few Clouds Few Clouds  
Wind Chill: 33°   Ceiling: Unl
Heat Index: 33°   Visibility: 10mi
Dew Point: 32°   Wind: 3mph
Humidity: 96%   Direction: 130°SE
Pressure: 30.04"   Gusts: NA
Location:  38.55°N, 79.83°W
Report Text: KEKN 310351Z AUTO 13003KT 10SM FEW032 01/00 A3004 RMK AO2 SLP192 T00060000 TSNO
Loading
Personal Weather Stations






























Interactive Weather Map
Tropical Storm Tracking
New forecast layout! Learn more

10-Day Weather Forecast

Advertisements
Track Severe Weather on mobile